Ibitinga, Brazil
Current Conditions -  °F | °C
As of 12:00 PM on Thursday 30 Oct 2014 (Local Time) from SBBU Reporting Station
Clear Clear  
Wind Chill: 91°   Ceiling: Unl
Heat Index: 92°   Visibility: 6mi
Dew Point: 63°   Wind: 5mph
Humidity: 38%   Direction: 300°WNW
Pressure: 29.85"   Gusts: NA
Location:  21.76°S, 48.83°W
Report Text: SBBU 301400Z 30004KT CAVOK 33/17 Q1011
Loading
Personal Weather Stations






























Interactive Weather Map
Tropical Storm Tracking
New forecast layout! Learn more

10-Day Weather Forecast

Advertisements
Track Severe Weather on mobile